sensor_id;sensor_type;location;lat;lon;timestamp;P1;durP1;ratioP1;P2;durP2;ratioP2
75512;SDS011;64090;49.770;18.760;2023-06-22T00:02:19;8.90;;;5.10;;
75512;SDS011;64090;49.770;18.760;2023-06-22T00:05:24;8.20;;;5.70;;
75512;SDS011;64090;49.770;18.760;2023-06-22T00:08:27;7.60;;;5.40;;
75512;SDS011;64090;49.770;18.760;2023-06-22T00:11:30;10.90;;;6.40;;
75512;SDS011;64090;49.770;18.760;2023-06-22T00:14:35;11.20;;;5.60;;
75512;SDS011;64090;49.770;18.760;2023-06-22T00:17:38;8.00;;;5.40;;
75512;SDS011;64090;49.770;18.760;2023-06-22T00:20:41;8.20;;;4.90;;
75512;SDS011;64090;49.770;18.760;2023-06-22T00:23:44;6.90;;;4.70;;
75512;SDS011;64090;49.770;18.760;2023-06-22T00:26:48;9.50;;;4.90;;
75512;SDS011;64090;49.770;18.760;2023-06-22T00:29:51;7.60;;;4.70;;
75512;SDS011;64090;49.770;18.760;2023-06-22T00:32:54;8.30;;;4.20;;
75512;SDS011;64090;49.770;18.760;2023-06-22T00:35:57;8.40;;;4.80;;
75512;SDS011;64090;49.770;18.760;2023-06-22T00:39:00;6.10;;;4.30;;
75512;SDS011;64090;49.770;18.760;2023-06-22T00:42:04;6.10;;;3.90;;
75512;SDS011;64090;49.770;18.760;2023-06-22T00:45:07;8.30;;;4.60;;
75512;SDS011;64090;49.770;18.760;2023-06-22T00:48:10;6.00;;;4.00;;
75512;SDS011;64090;49.770;18.760;2023-06-22T00:51:15;7.20;;;4.40;;
75512;SDS011;64090;49.770;18.760;2023-06-22T00:54:19;7.90;;;4.50;;
75512;SDS011;64090;49.770;18.760;2023-06-22T00:57:27;7.00;;;4.90;;
75512;SDS011;64090;49.770;18.760;2023-06-22T01:00:31;7.30;;;4.10;;
75512;SDS011;64090;49.770;18.760;2023-06-22T01:03:35;6.90;;;4.60;;
75512;SDS011;64090;49.770;18.760;2023-06-22T01:06:41;6.40;;;4.90;;
75512;SDS011;64090;49.770;18.760;2023-06-22T01:10:01;6.80;;;4.40;;
75512;SDS011;64090;49.770;18.760;2023-06-22T01:16:34;6.50;;;4.70;;
75512;SDS011;64090;49.770;18.760;2023-06-22T01:19:46;10.00;;;4.90;;
75512;SDS011;64090;49.770;18.760;2023-06-22T01:26:21;8.80;;;5.10;;
75512;SDS011;64090;49.770;18.760;2023-06-22T01:29:31;7.00;;;4.60;;
75512;SDS011;64090;49.770;18.760;2023-06-22T01:32:36;7.30;;;5.30;;
75512;SDS011;64090;49.770;18.760;2023-06-22T01:35:40;9.50;;;4.90;;
75512;SDS011;64090;49.770;18.760;2023-06-22T01:38:44;7.70;;;4.90;;
75512;SDS011;64090;49.770;18.760;2023-06-22T01:41:49;7.80;;;5.50;;
75512;SDS011;64090;49.770;18.760;2023-06-22T01:44:53;6.70;;;4.40;;
75512;SDS011;64090;49.770;18.760;2023-06-22T01:47:56;6.60;;;4.70;;
75512;SDS011;64090;49.770;18.760;2023-06-22T01:51:00;8.20;;;4.80;;
75512;SDS011;64090;49.770;18.760;2023-06-22T01:54:05;8.50;;;4.90;;
75512;SDS011;64090;49.770;18.760;2023-06-22T01:57:09;6.00;;;4.30;;
75512;SDS011;64090;49.770;18.760;2023-06-22T02:00:14;9.40;;;5.10;;
75512;SDS011;64090;49.770;18.760;2023-06-22T02:03:26;7.30;;;4.80;;
75512;SDS011;64090;49.770;18.760;2023-06-22T02:06:36;7.10;;;4.50;;
75512;SDS011;64090;49.770;18.760;2023-06-22T02:09:42;8.10;;;5.30;;
75512;SDS011;64090;49.770;18.760;2023-06-22T02:12:48;10.00;;;5.70;;
75512;SDS011;64090;49.770;18.760;2023-06-22T02:15:55;9.00;;;5.70;;
75512;SDS011;64090;49.770;18.760;2023-06-22T02:18:59;9.80;;;5.90;;
75512;SDS011;64090;49.770;18.760;2023-06-22T02:22:05;8.20;;;5.20;;
75512;SDS011;64090;49.770;18.760;2023-06-22T02:25:08;8.10;;;5.00;;
75512;SDS011;64090;49.770;18.760;2023-06-22T02:28:11;9.50;;;5.60;;
75512;SDS011;64090;49.770;18.760;2023-06-22T02:31:14;7.60;;;4.60;;
75512;SDS011;64090;49.770;18.760;2023-06-22T02:34:18;7.70;;;4.60;;
75512;SDS011;64090;49.770;18.760;2023-06-22T02:37:22;10.60;;;4.70;;
75512;SDS011;64090;49.770;18.760;2023-06-22T02:40:30;7.60;;;4.30;;
75512;SDS011;64090;49.770;18.760;2023-06-22T02:43:33;7.70;;;4.60;;
75512;SDS011;64090;49.770;18.760;2023-06-22T02:46:36;8.20;;;4.60;;
75512;SDS011;64090;49.770;18.760;2023-06-22T02:49:39;7.00;;;4.80;;
75512;SDS011;64090;49.770;18.760;2023-06-22T02:52:42;7.10;;;4.30;;
75512;SDS011;64090;49.770;18.760;2023-06-22T02:55:45;7.70;;;4.70;;
75512;SDS011;64090;49.770;18.760;2023-06-22T02:58:48;7.30;;;5.10;;
75512;SDS011;64090;49.770;18.760;2023-06-22T03:01:51;8.70;;;5.00;;
75512;SDS011;64090;49.770;18.760;2023-06-22T03:04:54;9.20;;;5.90;;
75512;SDS011;64090;49.770;18.760;2023-06-22T03:07:57;9.60;;;5.40;;
75512;SDS011;64090;49.770;18.760;2023-06-22T03:11:00;9.30;;;5.70;;
75512;SDS011;64090;49.770;18.760;2023-06-22T03:14:03;10.40;;;5.80;;
75512;SDS011;64090;49.770;18.760;2023-06-22T03:17:06;10.80;;;6.00;;
75512;SDS011;64090;49.770;18.760;2023-06-22T03:20:09;8.60;;;6.20;;
75512;SDS011;64090;49.770;18.760;2023-06-22T03:23:14;9.70;;;6.00;;
75512;SDS011;64090;49.770;18.760;2023-06-22T03:26:17;8.40;;;6.30;;
75512;SDS011;64090;49.770;18.760;2023-06-22T03:29:20;11.40;;;7.60;;
75512;SDS011;64090;49.770;18.760;2023-06-22T03:32:24;10.90;;;6.90;;
75512;SDS011;64090;49.770;18.760;2023-06-22T03:35:28;10.70;;;6.30;;
75512;SDS011;64090;49.770;18.760;2023-06-22T03:38:30;10.60;;;7.20;;
75512;SDS011;64090;49.770;18.760;2023-06-22T03:41:33;8.80;;;6.50;;
75512;SDS011;64090;49.770;18.760;2023-06-22T03:44:36;8.50;;;6.00;;
75512;SDS011;64090;49.770;18.760;2023-06-22T03:47:40;8.90;;;5.90;;
75512;SDS011;64090;49.770;18.760;2023-06-22T03:50:43;7.30;;;5.20;;
75512;SDS011;64090;49.770;18.760;2023-06-22T03:53:46;6.80;;;4.80;;
75512;SDS011;64090;49.770;18.760;2023-06-22T03:56:50;7.90;;;4.30;;
75512;SDS011;64090;49.770;18.760;2023-06-22T03:59:55;6.70;;;4.10;;
75512;SDS011;64090;49.770;18.760;2023-06-22T04:02:59;7.50;;;4.60;;
75512;SDS011;64090;49.770;18.760;2023-06-22T04:06:03;7.20;;;4.60;;
75512;SDS011;64090;49.770;18.760;2023-06-22T04:09:06;7.70;;;4.50;;
75512;SDS011;64090;49.770;18.760;2023-06-22T04:12:09;6.90;;;4.50;;
75512;SDS011;64090;49.770;18.760;2023-06-22T04:15:12;7.50;;;4.80;;
75512;SDS011;64090;49.770;18.760;2023-06-22T04:18:15;9.40;;;4.70;;
75512;SDS011;64090;49.770;18.760;2023-06-22T04:21:18;7.40;;;4.20;;
75512;SDS011;64090;49.770;18.760;2023-06-22T04:24:22;6.40;;;3.80;;
75512;SDS011;64090;49.770;18.760;2023-06-22T04:27:25;7.60;;;4.40;;
75512;SDS011;64090;49.770;18.760;2023-06-22T04:30:28;7.00;;;3.90;;
75512;SDS011;64090;49.770;18.760;2023-06-22T04:33:31;5.00;;;3.40;;
75512;SDS011;64090;49.770;18.760;2023-06-22T04:36:35;6.10;;;3.80;;
75512;SDS011;64090;49.770;18.760;2023-06-22T04:39:40;5.40;;;3.60;;
75512;SDS011;64090;49.770;18.760;2023-06-22T04:42:43;6.10;;;4.10;;
75512;SDS011;64090;49.770;18.760;2023-06-22T04:45:54;6.90;;;3.60;;
75512;SDS011;64090;49.770;18.760;2023-06-22T04:48:57;7.20;;;3.90;;
75512;SDS011;64090;49.770;18.760;2023-06-22T04:52:00;6.60;;;4.00;;
75512;SDS011;64090;49.770;18.760;2023-06-22T04:55:05;10.10;;;4.40;;
75512;SDS011;64090;49.770;18.760;2023-06-22T04:58:08;6.60;;;3.90;;
75512;SDS011;64090;49.770;18.760;2023-06-22T05:01:11;7.00;;;3.80;;
75512;SDS011;64090;49.770;18.760;2023-06-22T05:04:14;7.70;;;4.40;;
75512;SDS011;64090;49.770;18.760;2023-06-22T05:07:17;7.00;;;4.30;;
75512;SDS011;64090;49.770;18.760;2023-06-22T05:10:20;6.80;;;5.10;;
75512;SDS011;64090;49.770;18.760;2023-06-22T05:13:23;7.80;;;3.90;;
75512;SDS011;64090;49.770;18.760;2023-06-22T05:16:29;7.30;;;4.30;;
75512;SDS011;64090;49.770;18.760;2023-06-22T05:19:32;7.50;;;4.10;;
75512;SDS011;64090;49.770;18.760;2023-06-22T05:22:37;6.80;;;4.60;;
75512;SDS011;64090;49.770;18.760;2023-06-22T05:25:40;6.10;;;3.90;;
75512;SDS011;64090;49.770;18.760;2023-06-22T05:28:43;4.80;;;3.40;;
75512;SDS011;64090;49.770;18.760;2023-06-22T05:31:49;4.50;;;3.10;;
75512;SDS011;64090;49.770;18.760;2023-06-22T05:34:52;7.60;;;3.80;;
75512;SDS011;64090;49.770;18.760;2023-06-22T05:37:55;7.40;;;4.80;;
75512;SDS011;64090;49.770;18.760;2023-06-22T05:40:58;6.30;;;4.30;;
75512;SDS011;64090;49.770;18.760;2023-06-22T05:44:01;7.60;;;4.70;;
75512;SDS011;64090;49.770;18.760;2023-06-22T05:47:04;8.20;;;4.60;;
75512;SDS011;64090;49.770;18.760;2023-06-22T05:50:07;7.40;;;5.40;;
75512;SDS011;64090;49.770;18.760;2023-06-22T05:53:14;7.10;;;4.90;;
75512;SDS011;64090;49.770;18.760;2023-06-22T05:56:17;7.60;;;5.10;;
75512;SDS011;64090;49.770;18.760;2023-06-22T05:59:21;10.30;;;6.60;;
75512;SDS011;64090;49.770;18.760;2023-06-22T06:02:24;8.70;;;6.90;;
75512;SDS011;64090;49.770;18.760;2023-06-22T06:05:28;10.80;;;6.80;;
75512;SDS011;64090;49.770;18.760;2023-06-22T06:08:31;11.20;;;6.80;;
75512;SDS011;64090;49.770;18.760;2023-06-22T06:11:34;10.20;;;7.70;;
75512;SDS011;64090;49.770;18.760;2023-06-22T06:14:36;9.00;;;6.80;;
75512;SDS011;64090;49.770;18.760;2023-06-22T06:17:58;8.80;;;7.40;;
75512;SDS011;64090;49.770;18.760;2023-06-22T06:21:01;11.10;;;8.00;;
75512;SDS011;64090;49.770;18.760;2023-06-22T06:24:04;12.20;;;9.30;;
75512;SDS011;64090;49.770;18.760;2023-06-22T06:27:07;12.20;;;9.10;;
75512;SDS011;64090;49.770;18.760;2023-06-22T06:30:11;9.90;;;7.90;;
75512;SDS011;64090;49.770;18.760;2023-06-22T06:33:15;9.50;;;7.90;;
75512;SDS011;64090;49.770;18.760;2023-06-22T06:36:18;15.20;;;9.90;;
75512;SDS011;64090;49.770;18.760;2023-06-22T06:39:21;11.80;;;8.60;;
75512;SDS011;64090;49.770;18.760;2023-06-22T06:42:24;12.90;;;9.20;;
75512;SDS011;64090;49.770;18.760;2023-06-22T06:45:27;13.40;;;10.20;;
75512;SDS011;64090;49.770;18.760;2023-06-22T06:48:31;14.60;;;10.20;;
75512;SDS011;64090;49.770;18.760;2023-06-22T06:51:34;12.00;;;9.10;;
75512;SDS011;64090;49.770;18.760;2023-06-22T06:54:37;11.90;;;9.80;;
75512;SDS011;64090;49.770;18.760;2023-06-22T06:57:40;15.10;;;12.60;;
75512;SDS011;64090;49.770;18.760;2023-06-22T07:00:44;14.40;;;10.90;;
75512;SDS011;64090;49.770;18.760;2023-06-22T07:03:47;11.30;;;10.20;;
75512;SDS011;64090;49.770;18.760;2023-06-22T07:06:50;14.80;;;11.10;;
75512;SDS011;64090;49.770;18.760;2023-06-22T07:09:53;12.00;;;9.60;;
75512;SDS011;64090;49.770;18.760;2023-06-22T07:12:56;11.10;;;9.40;;
75512;SDS011;64090;49.770;18.760;2023-06-22T07:16:00;14.50;;;11.70;;
75512;SDS011;64090;49.770;18.760;2023-06-22T07:19:02;15.90;;;12.00;;
75512;SDS011;64090;49.770;18.760;2023-06-22T07:22:05;13.20;;;11.60;;
75512;SDS011;64090;49.770;18.760;2023-06-22T07:25:09;14.90;;;12.40;;
75512;SDS011;64090;49.770;18.760;2023-06-22T07:28:12;16.30;;;12.70;;
75512;SDS011;64090;49.770;18.760;2023-06-22T07:31:15;16.20;;;13.10;;
75512;SDS011;64090;49.770;18.760;2023-06-22T07:34:18;16.30;;;13.10;;
75512;SDS011;64090;49.770;18.760;2023-06-22T07:37:21;16.60;;;13.40;;
75512;SDS011;64090;49.770;18.760;2023-06-22T07:40:24;17.60;;;14.30;;
75512;SDS011;64090;49.770;18.760;2023-06-22T07:43:27;16.00;;;13.30;;
75512;SDS011;64090;49.770;18.760;2023-06-22T07:46:32;18.80;;;13.00;;
75512;SDS011;64090;49.770;18.760;2023-06-22T07:49:36;18.00;;;14.60;;
75512;SDS011;64090;49.770;18.760;2023-06-22T07:52:38;19.30;;;16.20;;
75512;SDS011;64090;49.770;18.760;2023-06-22T07:55:41;17.60;;;15.30;;
75512;SDS011;64090;49.770;18.760;2023-06-22T07:58:45;21.20;;;15.70;;
75512;SDS011;64090;49.770;18.760;2023-06-22T08:01:48;19.70;;;15.30;;
75512;SDS011;64090;49.770;18.760;2023-06-22T08:04:51;17.20;;;14.20;;
75512;SDS011;64090;49.770;18.760;2023-06-22T08:08:02;18.10;;;14.70;;
75512;SDS011;64090;49.770;18.760;2023-06-22T08:11:05;17.40;;;14.80;;
75512;SDS011;64090;49.770;18.760;2023-06-22T08:14:08;17.60;;;14.90;;
75512;SDS011;64090;49.770;18.760;2023-06-22T08:17:12;16.90;;;14.20;;
75512;SDS011;64090;49.770;18.760;2023-06-22T08:20:15;19.00;;;15.40;;
75512;SDS011;64090;49.770;18.760;2023-06-22T08:23:18;16.40;;;14.30;;
75512;SDS011;64090;49.770;18.760;2023-06-22T08:26:21;19.10;;;14.60;;
75512;SDS011;64090;49.770;18.760;2023-06-22T08:29:24;18.10;;;14.50;;
75512;SDS011;64090;49.770;18.760;2023-06-22T08:32:27;18.30;;;15.00;;
75512;SDS011;64090;49.770;18.760;2023-06-22T08:35:31;14.10;;;12.30;;
75512;SDS011;64090;49.770;18.760;2023-06-22T08:38:35;16.30;;;14.10;;
75512;SDS011;64090;49.770;18.760;2023-06-22T08:41:37;14.00;;;11.70;;
75512;SDS011;64090;49.770;18.760;2023-06-22T08:44:40;15.00;;;13.40;;
75512;SDS011;64090;49.770;18.760;2023-06-22T08:47:43;16.50;;;14.50;;
75512;SDS011;64090;49.770;18.760;2023-06-22T08:50:46;15.70;;;13.50;;
75512;SDS011;64090;49.770;18.760;2023-06-22T08:53:49;14.60;;;12.60;;
75512;SDS011;64090;49.770;18.760;2023-06-22T08:56:52;17.00;;;15.20;;
75512;SDS011;64090;49.770;18.760;2023-06-22T08:59:55;17.40;;;14.10;;
75512;SDS011;64090;49.770;18.760;2023-06-22T09:03:01;17.30;;;15.10;;
75512;SDS011;64090;49.770;18.760;2023-06-22T09:06:05;16.90;;;13.40;;
75512;SDS011;64090;49.770;18.760;2023-06-22T09:09:08;15.70;;;13.40;;
75512;SDS011;64090;49.770;18.760;2023-06-22T09:12:11;17.10;;;14.80;;
75512;SDS011;64090;49.770;18.760;2023-06-22T09:15:14;15.30;;;12.90;;
75512;SDS011;64090;49.770;18.760;2023-06-22T09:18:30;12.20;;;10.90;;
75512;SDS011;64090;49.770;18.760;2023-06-22T09:21:32;12.00;;;10.80;;
75512;SDS011;64090;49.770;18.760;2023-06-22T09:24:36;11.70;;;10.40;;
75512;SDS011;64090;49.770;18.760;2023-06-22T09:27:39;13.10;;;11.70;;
75512;SDS011;64090;49.770;18.760;2023-06-22T09:30:45;13.20;;;11.30;;
75512;SDS011;64090;49.770;18.760;2023-06-22T09:33:48;14.80;;;13.20;;
75512;SDS011;64090;49.770;18.760;2023-06-22T09:36:51;14.90;;;12.70;;
75512;SDS011;64090;49.770;18.760;2023-06-22T09:39:54;13.50;;;12.10;;
75512;SDS011;64090;49.770;18.760;2023-06-22T09:42:56;15.20;;;13.30;;
75512;SDS011;64090;49.770;18.760;2023-06-22T09:45:59;14.00;;;12.60;;
75512;SDS011;64090;49.770;18.760;2023-06-22T09:49:02;14.60;;;12.30;;
75512;SDS011;64090;49.770;18.760;2023-06-22T09:52:05;14.40;;;12.30;;
75512;SDS011;64090;49.770;18.760;2023-06-22T09:55:09;15.20;;;12.50;;
75512;SDS011;64090;49.770;18.760;2023-06-22T09:58:12;14.80;;;12.70;;
75512;SDS011;64090;49.770;18.760;2023-06-22T10:01:15;8.60;;;7.70;;
75512;SDS011;64090;49.770;18.760;2023-06-22T10:04:18;14.60;;;13.00;;
75512;SDS011;64090;49.770;18.760;2023-06-22T10:07:21;16.20;;;14.60;;
75512;SDS011;64090;49.770;18.760;2023-06-22T10:10:24;14.50;;;12.50;;
75512;SDS011;64090;49.770;18.760;2023-06-22T10:13:27;14.50;;;12.50;;
75512;SDS011;64090;49.770;18.760;2023-06-22T10:16:31;14.60;;;12.70;;
75512;SDS011;64090;49.770;18.760;2023-06-22T10:19:35;14.20;;;12.60;;
75512;SDS011;64090;49.770;18.760;2023-06-22T10:22:40;11.90;;;8.90;;
75512;SDS011;64090;49.770;18.760;2023-06-22T10:25:44;14.30;;;11.10;;
75512;SDS011;64090;49.770;18.760;2023-06-22T10:28:47;13.50;;;12.10;;
75512;SDS011;64090;49.770;18.760;2023-06-22T10:31:52;14.80;;;13.20;;
75512;SDS011;64090;49.770;18.760;2023-06-22T10:34:55;11.40;;;10.20;;
75512;SDS011;64090;49.770;18.760;2023-06-22T10:38:01;15.30;;;13.00;;
75512;SDS011;64090;49.770;18.760;2023-06-22T10:41:04;15.60;;;13.50;;
75512;SDS011;64090;49.770;18.760;2023-06-22T10:44:07;14.10;;;12.60;;
75512;SDS011;64090;49.770;18.760;2023-06-22T10:47:10;16.30;;;13.00;;
75512;SDS011;64090;49.770;18.760;2023-06-22T10:50:16;14.20;;;12.80;;
75512;SDS011;64090;49.770;18.760;2023-06-22T10:53:20;15.00;;;13.40;;
75512;SDS011;64090;49.770;18.760;2023-06-22T10:56:24;15.60;;;14.00;;
75512;SDS011;64090;49.770;18.760;2023-06-22T10:59:27;16.20;;;14.50;;
75512;SDS011;64090;49.770;18.760;2023-06-22T11:02:31;15.40;;;13.80;;
75512;SDS011;64090;49.770;18.760;2023-06-22T11:05:34;16.50;;;14.80;;
75512;SDS011;64090;49.770;18.760;2023-06-22T11:08:37;16.00;;;14.40;;
75512;SDS011;64090;49.770;18.760;2023-06-22T11:11:45;16.40;;;14.70;;
75512;SDS011;64090;49.770;18.760;2023-06-22T11:14:48;15.30;;;13.40;;
75512;SDS011;64090;49.770;18.760;2023-06-22T11:17:54;14.80;;;13.30;;
75512;SDS011;64090;49.770;18.760;2023-06-22T11:20:57;14.40;;;12.70;;
75512;SDS011;64090;49.770;18.760;2023-06-22T11:24:01;16.60;;;13.70;;
75512;SDS011;64090;49.770;18.760;2023-06-22T11:27:04;16.00;;;14.30;;
75512;SDS011;64090;49.770;18.760;2023-06-22T11:30:08;14.70;;;13.20;;
75512;SDS011;64090;49.770;18.760;2023-06-22T11:33:11;14.50;;;12.80;;
75512;SDS011;64090;49.770;18.760;2023-06-22T11:36:15;15.00;;;13.40;;
75512;SDS011;64090;49.770;18.760;2023-06-22T11:39:18;15.40;;;13.80;;
75512;SDS011;64090;49.770;18.760;2023-06-22T11:42:35;14.80;;;13.10;;
75512;SDS011;64090;49.770;18.760;2023-06-22T11:45:38;14.50;;;12.40;;
75512;SDS011;64090;49.770;18.760;2023-06-22T11:48:41;15.00;;;12.10;;
75512;SDS011;64090;49.770;18.760;2023-06-22T11:51:44;11.50;;;10.40;;
75512;SDS011;64090;49.770;18.760;2023-06-22T11:54:47;13.60;;;12.10;;
75512;SDS011;64090;49.770;18.760;2023-06-22T11:57:56;14.20;;;12.70;;
75512;SDS011;64090;49.770;18.760;2023-06-22T12:01:05;15.00;;;13.40;;
75512;SDS011;64090;49.770;18.760;2023-06-22T12:04:08;15.10;;;13.50;;
75512;SDS011;64090;49.770;18.760;2023-06-22T12:07:13;14.10;;;12.60;;
75512;SDS011;64090;49.770;18.760;2023-06-22T12:10:17;13.40;;;12.10;;
75512;SDS011;64090;49.770;18.760;2023-06-22T12:13:21;13.30;;;11.90;;
75512;SDS011;64090;49.770;18.760;2023-06-22T12:16:24;14.60;;;13.20;;
75512;SDS011;64090;49.770;18.760;2023-06-22T12:19:27;13.80;;;12.40;;
75512;SDS011;64090;49.770;18.760;2023-06-22T12:22:31;13.20;;;11.90;;
75512;SDS011;64090;49.770;18.760;2023-06-22T12:25:35;13.70;;;12.20;;
75512;SDS011;64090;49.770;18.760;2023-06-22T12:28:38;14.70;;;13.20;;
75512;SDS011;64090;49.770;18.760;2023-06-22T12:31:41;14.50;;;13.00;;
75512;SDS011;64090;49.770;18.760;2023-06-22T12:34:44;13.50;;;12.00;;
75512;SDS011;64090;49.770;18.760;2023-06-22T12:37:47;13.90;;;12.00;;
75512;SDS011;64090;49.770;18.760;2023-06-22T12:40:51;13.70;;;12.30;;
75512;SDS011;64090;49.770;18.760;2023-06-22T12:43:54;14.00;;;12.40;;
75512;SDS011;64090;49.770;18.760;2023-06-22T12:46:57;13.50;;;12.10;;
75512;SDS011;64090;49.770;18.760;2023-06-22T12:50:00;13.70;;;11.30;;
75512;SDS011;64090;49.770;18.760;2023-06-22T12:53:03;13.40;;;12.00;;
75512;SDS011;64090;49.770;18.760;2023-06-22T12:56:08;12.00;;;10.70;;
75512;SDS011;64090;49.770;18.760;2023-06-22T12:59:12;12.20;;;11.00;;
75512;SDS011;64090;49.770;18.760;2023-06-22T13:02:15;13.20;;;11.20;;
75512;SDS011;64090;49.770;18.760;2023-06-22T13:05:18;13.50;;;12.10;;
75512;SDS011;64090;49.770;18.760;2023-06-22T13:08:21;13.20;;;11.60;;
75512;SDS011;64090;49.770;18.760;2023-06-22T13:11:37;11.90;;;10.60;;
75512;SDS011;64090;49.770;18.760;2023-06-22T13:14:40;12.30;;;11.00;;
75512;SDS011;64090;49.770;18.760;2023-06-22T13:17:43;12.10;;;10.80;;
75512;SDS011;64090;49.770;18.760;2023-06-22T13:20:46;11.80;;;10.40;;
75512;SDS011;64090;49.770;18.760;2023-06-22T13:23:49;11.20;;;10.00;;
75512;SDS011;64090;49.770;18.760;2023-06-22T13:26:52;11.80;;;10.60;;
75512;SDS011;64090;49.770;18.760;2023-06-22T13:29:55;11.30;;;10.00;;
75512;SDS011;64090;49.770;18.760;2023-06-22T13:32:58;11.20;;;10.00;;
75512;SDS011;64090;49.770;18.760;2023-06-22T13:36:02;10.90;;;9.70;;
75512;SDS011;64090;49.770;18.760;2023-06-22T13:39:06;12.20;;;10.30;;
75512;SDS011;64090;49.770;18.760;2023-06-22T13:42:09;10.70;;;9.60;;
75512;SDS011;64090;49.770;18.760;2023-06-22T13:45:12;11.40;;;10.20;;
75512;SDS011;64090;49.770;18.760;2023-06-22T13:48:15;11.50;;;10.30;;
75512;SDS011;64090;49.770;18.760;2023-06-22T13:51:18;11.70;;;10.50;;
75512;SDS011;64090;49.770;18.760;2023-06-22T13:54:21;11.00;;;9.90;;
75512;SDS011;64090;49.770;18.760;2023-06-22T13:57:27;9.00;;;8.10;;
75512;SDS011;64090;49.770;18.760;2023-06-22T14:00:30;10.30;;;9.20;;
75512;SDS011;64090;49.770;18.760;2023-06-22T14:03:34;12.70;;;9.20;;
75512;SDS011;64090;49.770;18.760;2023-06-22T14:06:38;11.30;;;10.10;;
75512;SDS011;64090;49.770;18.760;2023-06-22T14:09:41;10.20;;;9.20;;
75512;SDS011;64090;49.770;18.760;2023-06-22T14:12:45;11.80;;;10.00;;
75512;SDS011;64090;49.770;18.760;2023-06-22T14:15:49;11.40;;;9.50;;
75512;SDS011;64090;49.770;18.760;2023-06-22T14:18:54;10.50;;;9.40;;
75512;SDS011;64090;49.770;18.760;2023-06-22T14:21:59;10.00;;;9.00;;
75512;SDS011;64090;49.770;18.760;2023-06-22T14:25:04;9.60;;;8.60;;
75512;SDS011;64090;49.770;18.760;2023-06-22T14:31:10;9.50;;;8.70;;
75512;SDS011;64090;49.770;18.760;2023-06-22T14:34:14;9.70;;;8.30;;
75512;SDS011;64090;49.770;18.760;2023-06-22T14:37:18;10.30;;;9.30;;
75512;SDS011;64090;49.770;18.760;2023-06-22T14:40:21;10.20;;;8.30;;
75512;SDS011;64090;49.770;18.760;2023-06-22T14:43:28;9.60;;;8.70;;
75512;SDS011;64090;49.770;18.760;2023-06-22T14:46:31;9.50;;;8.60;;
75512;SDS011;64090;49.770;18.760;2023-06-22T14:49:34;9.70;;;8.70;;
75512;SDS011;64090;49.770;18.760;2023-06-22T14:52:38;9.10;;;8.00;;
75512;SDS011;64090;49.770;18.760;2023-06-22T14:55:41;8.80;;;7.90;;
75512;SDS011;64090;49.770;18.760;2023-06-22T14:58:44;10.10;;;7.80;;
75512;SDS011;64090;49.770;18.760;2023-06-22T15:01:49;9.40;;;8.50;;
75512;SDS011;64090;49.770;18.760;2023-06-22T15:04:52;9.60;;;8.70;;
75512;SDS011;64090;49.770;18.760;2023-06-22T15:07:56;8.90;;;7.80;;
75512;SDS011;64090;49.770;18.760;2023-06-22T15:11:00;7.90;;;7.10;;
75512;SDS011;64090;49.770;18.760;2023-06-22T15:14:09;8.20;;;7.30;;
75512;SDS011;64090;49.770;18.760;2023-06-22T15:17:13;9.50;;;7.90;;
75512;SDS011;64090;49.770;18.760;2023-06-22T15:20:17;8.70;;;7.70;;
75512;SDS011;64090;49.770;18.760;2023-06-22T15:23:21;8.60;;;7.50;;
75512;SDS011;64090;49.770;18.760;2023-06-22T15:26:24;8.50;;;7.60;;
75512;SDS011;64090;49.770;18.760;2023-06-22T15:29:27;9.60;;;7.90;;
75512;SDS011;64090;49.770;18.760;2023-06-22T15:32:33;8.50;;;7.60;;
75512;SDS011;64090;49.770;18.760;2023-06-22T15:35:36;8.50;;;7.20;;
75512;SDS011;64090;49.770;18.760;2023-06-22T15:38:39;9.60;;;8.00;;
75512;SDS011;64090;49.770;18.760;2023-06-22T15:41:42;8.40;;;7.40;;
75512;SDS011;64090;49.770;18.760;2023-06-22T15:44:46;9.50;;;7.60;;
75512;SDS011;64090;49.770;18.760;2023-06-22T15:47:49;8.10;;;7.30;;
75512;SDS011;64090;49.770;18.760;2023-06-22T15:50:52;8.60;;;7.30;;
75512;SDS011;64090;49.770;18.760;2023-06-22T15:53:55;9.30;;;8.00;;
75512;SDS011;64090;49.770;18.760;2023-06-22T15:57:00;8.70;;;7.80;;
75512;SDS011;64090;49.770;18.760;2023-06-22T16:00:04;8.80;;;7.90;;
75512;SDS011;64090;49.770;18.760;2023-06-22T16:03:08;8.90;;;7.90;;
75512;SDS011;64090;49.770;18.760;2023-06-22T16:06:11;8.80;;;7.30;;
75512;SDS011;64090;49.770;18.760;2023-06-22T16:09:14;8.30;;;7.20;;
75512;SDS011;64090;49.770;18.760;2023-06-22T16:12:17;7.50;;;6.70;;
75512;SDS011;64090;49.770;18.760;2023-06-22T16:15:21;8.60;;;7.60;;
75512;SDS011;64090;49.770;18.760;2023-06-22T16:18:24;7.30;;;6.60;;
75512;SDS011;64090;49.770;18.760;2023-06-22T16:21:27;8.90;;;7.00;;
75512;SDS011;64090;49.770;18.760;2023-06-22T16:24:30;8.10;;;7.30;;
75512;SDS011;64090;49.770;18.760;2023-06-22T16:27:33;8.70;;;6.80;;
75512;SDS011;64090;49.770;18.760;2023-06-22T16:30:37;7.60;;;6.90;;
75512;SDS011;64090;49.770;18.760;2023-06-22T16:33:42;7.70;;;6.90;;
75512;SDS011;64090;49.770;18.760;2023-06-22T16:36:49;6.90;;;6.20;;
75512;SDS011;64090;49.770;18.760;2023-06-22T16:39:55;7.90;;;6.80;;
75512;SDS011;64090;49.770;18.760;2023-06-22T16:42:59;8.40;;;7.10;;
75512;SDS011;64090;49.770;18.760;2023-06-22T16:46:03;7.60;;;6.70;;
75512;SDS011;64090;49.770;18.760;2023-06-22T16:49:06;8.40;;;6.80;;
75512;SDS011;64090;49.770;18.760;2023-06-22T16:52:09;8.40;;;6.70;;
75512;SDS011;64090;49.770;18.760;2023-06-22T16:55:13;8.40;;;7.50;;
75512;SDS011;64090;49.770;18.760;2023-06-22T16:58:17;8.00;;;7.20;;
75512;SDS011;64090;49.770;18.760;2023-06-22T17:01:25;8.50;;;7.70;;
75512;SDS011;64090;49.770;18.760;2023-06-22T17:04:29;7.30;;;6.60;;
75512;SDS011;64090;49.770;18.760;2023-06-22T17:07:34;8.60;;;7.00;;
75512;SDS011;64090;49.770;18.760;2023-06-22T17:10:42;7.70;;;6.90;;
75512;SDS011;64090;49.770;18.760;2023-06-22T17:13:46;8.20;;;6.90;;
75512;SDS011;64090;49.770;18.760;2023-06-22T17:16:49;7.80;;;7.10;;
75512;SDS011;64090;49.770;18.760;2023-06-22T17:19:53;12.10;;;7.80;;
75512;SDS011;64090;49.770;18.760;2023-06-22T17:22:59;9.70;;;7.30;;
75512;SDS011;64090;49.770;18.760;2023-06-22T17:26:06;10.00;;;8.30;;
75512;SDS011;64090;49.770;18.760;2023-06-22T17:29:09;9.10;;;7.90;;
75512;SDS011;64090;49.770;18.760;2023-06-22T17:32:12;9.60;;;8.70;;
75512;SDS011;64090;49.770;18.760;2023-06-22T17:35:16;8.60;;;7.70;;
75512;SDS011;64090;49.770;18.760;2023-06-22T17:38:22;9.20;;;8.10;;
75512;SDS011;64090;49.770;18.760;2023-06-22T17:41:32;9.00;;;8.10;;
75512;SDS011;64090;49.770;18.760;2023-06-22T17:44:36;8.90;;;8.00;;
75512;SDS011;64090;49.770;18.760;2023-06-22T17:47:40;11.80;;;8.90;;
75512;SDS011;64090;49.770;18.760;2023-06-22T17:50:44;10.10;;;9.00;;
75512;SDS011;64090;49.770;18.760;2023-06-22T17:53:48;11.30;;;9.20;;
75512;SDS011;64090;49.770;18.760;2023-06-22T17:56:53;11.10;;;9.00;;
75512;SDS011;64090;49.770;18.760;2023-06-22T17:59:56;11.10;;;9.80;;
75512;SDS011;64090;49.770;18.760;2023-06-22T18:02:59;10.20;;;8.30;;
75512;SDS011;64090;49.770;18.760;2023-06-22T18:06:04;11.10;;;9.40;;
75512;SDS011;64090;49.770;18.760;2023-06-22T18:09:09;10.90;;;9.30;;